Speed, Missouri
Current Conditions -  °F | °C
As of 2:55 AM on Thursday 23 Oct 2014 (Local Time) from KVER Reporting Station
Clear Clear  
Wind Chill:   Ceiling: Unl
Heat Index:   Visibility: 10mi
Dew Point:   Wind: 6mph
Humidity: 83%   Direction: 130°SE
Pressure: 30.16"   Gusts: NA
Location:  38.8814°N, 92.7602°W
Report Text: KVER 230755Z AUTO 13005KT 10SM CLR 08/05 A3016 RMK AO2 T00800053
Loading
Personal Weather Stations






























Interactive Weather Map
Tropical Storm Tracking
New forecast layout! Learn more

10-Day Weather Forecast

Advertisements
Track Severe Weather on mobile